Terminal Aerodrome Forecast
Issued by NWS Cleveland, OH

Home | Current Version | Previous Version | Text Only | Print | Product List | Glossary On
Versions: 1 2 3 4 5 6 7 8 9 10 11 12 13 14 15 16
866
FTUS41 KCLE 111133
TAFYNG
TAF
KYNG 111133Z 1112/1212 14006KT 2SM -SN OVC025
     FM111400 16010KT 4SM -SN OVC035
      TEMPO 1114/1117 2SM -SN OVC025
     FM112000 15010KT 2SM -SN OVC015
     FM120300 17010KT 3SM -RASN OVC008=

USA.gov is the U.S. government's official web portal to all federal, state and local government web resources and services.